createdAt,value
2018-09-01T00:00:43.860Z,0.00
2018-09-01T00:01:43.842Z,0.00
2018-09-01T00:02:44.111Z,0.00
2018-09-01T00:03:44.515Z,0.00
2018-09-01T00:04:44.602Z,0.00
2018-09-01T00:05:44.554Z,0.00
2018-09-01T00:06:43.692Z,0.00
2018-09-01T00:07:44.107Z,0.00
2018-09-01T00:08:44.110Z,0.00
2018-09-01T00:09:44.555Z,0.00
2018-09-01T00:10:44.553Z,0.00
2018-09-01T00:11:44.056Z,0.00
2018-09-01T00:12:43.601Z,0.00
2018-09-01T00:13:44.054Z,0.00
2018-09-01T00:14:43.474Z,0.00
2018-09-01T00:15:43.440Z,0.00
2018-09-01T00:16:43.607Z,0.00
2018-09-01T00:17:43.385Z,0.00
2018-09-01T00:18:43.613Z,0.00
2018-09-01T00:19:43.328Z,0.00
2018-09-01T00:20:44.060Z,0.00
2018-09-01T00:21:44.055Z,0.00
2018-09-01T00:22:43.610Z,0.00
2018-09-01T00:23:44.962Z,0.00
2018-09-01T00:24:43.189Z,0.00
2018-09-01T00:25:43.156Z,0.00
2018-09-01T00:26:43.133Z,0.00
2018-09-01T00:27:43.627Z,0.00
2018-09-01T00:28:43.077Z,0.00
2018-09-01T00:29:43.093Z,0.00
2018-09-01T00:30:43.087Z,0.00
2018-09-01T00:31:43.558Z,0.00
2018-09-01T00:32:43.105Z,0.00
2018-09-01T00:33:43.564Z,0.00
2018-09-01T00:34:42.915Z,0.00
2018-09-01T00:35:42.919Z,0.00
2018-09-01T00:36:43.559Z,0.00
2018-09-01T00:37:43.560Z,0.00
2018-09-01T00:38:43.562Z,0.00
2018-09-01T00:39:42.765Z,0.00
2018-09-01T00:40:42.805Z,0.00
2018-09-01T00:41:42.702Z,0.00
2018-09-01T00:42:43.561Z,0.00
2018-09-01T00:43:42.661Z,0.00
2018-09-01T00:44:43.558Z,0.00
2018-09-01T00:45:42.630Z,0.00
2018-09-01T00:46:43.058Z,0.00
2018-09-01T00:47:42.611Z,0.00
2018-09-01T00:48:43.060Z,0.00
2018-09-01T00:49:42.489Z,0.00
2018-09-01T00:50:42.971Z,0.00
2018-09-01T00:51:43.119Z,0.00
2018-09-01T00:52:42.432Z,0.00
2018-09-01T00:53:42.371Z,0.00
2018-09-01T00:54:42.342Z,0.00
2018-09-01T00:55:42.306Z,0.00
2018-09-01T00:56:42.273Z,0.00
2018-09-01T00:57:42.655Z,0.00
2018-09-01T00:58:42.216Z,0.00
2018-09-01T00:59:42.188Z,0.00
2018-09-01T01:00:42.183Z,0.00
2018-09-01T01:01:42.616Z,0.00
2018-09-01T01:02:43.060Z,0.00
2018-09-01T01:03:42.116Z,0.00
2018-09-01T01:04:42.048Z,0.00
2018-09-01T01:05:42.020Z,0.00
2018-09-01T01:06:42.566Z,0.00
2018-09-01T01:07:41.961Z,0.00
2018-09-01T01:08:42.129Z,0.00
2018-09-01T01:09:41.903Z,0.00
2018-09-01T01:10:42.563Z,0.00
2018-09-01T01:11:42.563Z,0.00
2018-09-01T01:12:41.814Z,0.00
2018-09-01T01:13:41.880Z,0.00
2018-09-01T01:14:42.566Z,0.00
2018-09-01T01:15:41.735Z,0.00
2018-09-01T01:16:42.568Z,0.00
2018-09-01T01:17:42.563Z,0.00
2018-09-01T01:18:41.687Z,0.00
2018-09-01T01:19:42.568Z,0.00
2018-09-01T01:20:41.598Z,0.00
2018-09-01T01:21:42.074Z,0.00
2018-09-01T01:22:41.566Z,0.00
2018-09-01T01:23:42.064Z,0.00
2018-09-01T01:24:42.072Z,0.00
2018-09-01T01:25:41.441Z,0.00
2018-09-01T01:26:42.071Z,0.00
2018-09-01T01:27:41.635Z,0.00
2018-09-01T01:28:41.355Z,0.00
2018-09-01T01:29:42.065Z,0.00
2018-09-01T01:30:42.088Z,0.00
2018-09-01T01:31:41.280Z,0.00
2018-09-01T01:32:41.624Z,0.00
2018-09-01T01:33:41.216Z,0.00
2018-09-01T01:34:41.628Z,0.00
2018-09-01T01:35:41.151Z,0.00
2018-09-01T01:36:42.068Z,0.00
2018-09-01T01:37:41.100Z,0.00
2018-09-01T01:38:41.066Z,0.00
2018-09-01T01:39:41.078Z,0.00
2018-09-01T01:40:41.062Z,0.00
2018-09-01T01:41:40.979Z,0.00
2018-09-01T01:42:41.568Z,0.00
2018-09-01T01:43:40.924Z,0.00
2018-09-01T01:44:41.579Z,0.00
2018-09-01T01:45:40.909Z,0.00
2018-09-01T01:46:41.569Z,0.00
2018-09-01T01:47:41.571Z,0.00
2018-09-01T01:48:41.118Z,0.00
2018-09-01T01:49:40.833Z,0.00
2018-09-01T01:50:41.127Z,0.00
2018-09-01T01:51:40.691Z,0.00
2018-09-01T01:52:41.571Z,0.00
2018-09-01T01:53:41.568Z,0.00
2018-09-01T01:54:40.601Z,0.00
2018-09-01T01:55:40.622Z,0.00
2018-09-01T01:56:40.548Z,0.00
2018-09-01T01:57:41.075Z,0.00
2018-09-01T01:58:40.543Z,0.00
2018-09-01T01:59:41.073Z,0.00
2018-09-01T02:00:40.488Z,0.00
2018-09-01T02:01:42.980Z,0.00
2018-09-01T02:02:40.419Z,0.00
2018-09-01T02:03:40.346Z,0.00
2018-09-01T02:04:41.073Z,0.00
2018-09-01T02:05:40.328Z,0.00
2018-09-01T02:06:40.254Z,0.00
2018-09-01T02:07:40.240Z,0.00
2018-09-01T02:08:40.199Z,0.00
2018-09-01T02:09:40.171Z,0.00
2018-09-01T02:10:40.180Z,0.00
2018-09-01T02:11:41.074Z,0.00
2018-09-01T02:12:41.070Z,0.00
2018-09-01T02:13:40.051Z,0.00
2018-09-01T02:14:40.574Z,0.00
2018-09-01T02:15:40.041Z,0.00
2018-09-01T02:16:40.572Z,0.00
2018-09-01T02:17:40.479Z,0.00
2018-09-01T02:18:39.907Z,0.00
2018-09-01T02:19:40.573Z,0.00
2018-09-01T02:20:39.998Z,0.00
2018-09-01T02:21:40.573Z,0.00
2018-09-01T02:22:39.788Z,0.00
2018-09-01T02:23:39.758Z,0.00
2018-09-01T02:24:39.730Z,0.00
2018-09-01T02:25:39.748Z,0.00
2018-09-01T02:26:39.714Z,0.00
2018-09-01T02:27:39.656Z,0.00
2018-09-01T02:28:40.584Z,0.00
2018-09-01T02:29:40.575Z,0.00
2018-09-01T02:30:39.629Z,0.00
2018-09-01T02:31:39.524Z,0.00
2018-09-01T02:32:40.087Z,0.00
2018-09-01T02:33:40.075Z,0.00
2018-09-01T02:34:39.444Z,0.00
2018-09-01T02:35:39.408Z,0.00
2018-09-01T02:36:39.385Z,0.00
2018-09-01T02:37:39.683Z,0.00
2018-09-01T02:38:39.319Z,0.00
2018-09-01T02:39:40.076Z,0.00
2018-09-01T02:40:39.627Z,0.00
2018-09-01T02:41:39.230Z,0.00
2018-09-01T02:42:39.629Z,0.00
2018-09-01T02:43:39.191Z,0.00
2018-09-01T02:44:39.187Z,0.00
2018-09-01T02:45:39.153Z,0.00
2018-09-01T02:46:39.130Z,0.00
2018-09-01T02:47:39.063Z,0.00
2018-09-01T02:48:39.584Z,0.00
2018-09-01T02:49:41.577Z,0.00
2018-09-01T02:50:39.029Z,0.00
2018-09-01T02:51:38.936Z,0.00
2018-09-01T02:52:39.607Z,0.00
2018-09-01T02:53:39.574Z,0.00
2018-09-01T02:54:38.846Z,0.00
2018-09-01T02:55:39.131Z,0.00
2018-09-01T02:56:38.790Z,0.00
2018-09-01T02:57:38.817Z,0.00
2018-09-01T02:58:38.734Z,0.00
2018-09-01T02:59:39.146Z,0.00
2018-09-01T03:00:38.712Z,0.00
2018-09-01T03:01:39.576Z,0.00
2018-09-01T03:02:38.655Z,0.00
2018-09-01T03:03:39.583Z,0.00
2018-09-01T03:04:38.654Z,0.00
2018-09-01T03:05:39.088Z,0.00
2018-09-01T03:06:39.079Z,0.00
2018-09-01T03:07:38.469Z,0.00
2018-09-01T03:08:39.020Z,0.00
2018-09-01T03:09:38.457Z,0.00
2018-09-01T03:10:39.082Z,0.00
2018-09-01T03:11:38.349Z,0.00
2018-09-01T03:12:38.632Z,0.00
2018-09-01T03:13:39.077Z,0.00
2018-09-01T03:14:38.640Z,0.00
2018-09-01T03:15:38.227Z,0.00
2018-09-01T03:16:39.084Z,0.00
2018-09-01T03:17:38.168Z,0.00
2018-09-01T03:18:39.084Z,0.00
2018-09-01T03:19:38.637Z,0.00
2018-09-01T03:20:38.084Z,0.00
2018-09-01T03:21:38.053Z,0.00
2018-09-01T03:22:38.028Z,0.00
2018-09-01T03:23:38.581Z,0.00
2018-09-01T03:24:38.018Z,0.00
2018-09-01T03:25:38.582Z,0.00
2018-09-01T03:26:38.585Z,0.00
2018-09-01T03:27:37.873Z,0.00
2018-09-01T03:28:37.848Z,0.00
2018-09-01T03:29:37.860Z,0.00
2018-09-01T03:30:37.789Z,0.00
2018-09-01T03:31:38.583Z,0.00
2018-09-01T03:32:38.587Z,0.00
2018-09-01T03:33:37.701Z,0.00
2018-09-01T03:34:37.714Z,0.00
2018-09-01T03:35:37.690Z,0.00
2018-09-01T03:36:38.586Z,0.00
2018-09-01T03:37:37.572Z,0.00
2018-09-01T03:38:37.546Z,0.00
2018-09-01T03:39:37.530Z,0.00
2018-09-01T03:40:37.638Z,0.00
2018-09-01T03:41:37.456Z,0.00
2018-09-01T03:42:37.462Z,0.00
2018-09-01T03:43:37.637Z,0.00
2018-09-01T03:44:38.087Z,0.00
2018-09-01T03:45:38.136Z,0.00
2018-09-01T03:46:38.093Z,0.00
2018-09-01T03:47:40.492Z,0.00
2018-09-01T03:48:37.296Z,0.00
2018-09-01T03:49:37.268Z,0.00
2018-09-01T03:50:38.085Z,0.00
2018-09-01T03:51:37.210Z,0.00
2018-09-01T03:52:38.084Z,0.00
2018-09-01T03:53:38.087Z,0.00
2018-09-01T03:54:37.203Z,0.00
2018-09-01T03:55:37.610Z,0.00
2018-09-01T03:56:37.146Z,0.00
2018-09-01T03:57:36.986Z,0.00
2018-09-01T03:58:36.960Z,0.00
2018-09-01T03:59:36.965Z,0.00
2018-09-01T04:00:37.587Z,0.00
2018-09-01T04:01:36.864Z,0.00
2018-09-01T04:02:37.589Z,0.00
2018-09-01T04:03:37.597Z,0.00
2018-09-01T04:04:36.853Z,0.00
2018-09-01T04:05:36.743Z,0.00
2018-09-01T04:06:37.589Z,0.00
2018-09-01T04:07:36.684Z,0.00
2018-09-01T04:08:37.594Z,0.00
2018-09-01T04:09:37.140Z,5.63
2018-09-01T04:10:37.585Z,5.63
2018-09-01T04:11:37.090Z,5.63
2018-09-01T04:12:37.086Z,5.63
2018-09-01T04:13:36.510Z,5.63
2018-09-01T04:14:36.516Z,5.63
2018-09-01T04:15:36.452Z,11.25
2018-09-01T04:16:37.087Z,11.25
2018-09-01T04:17:36.382Z,11.25
2018-09-01T04:18:37.090Z,11.25
2018-09-01T04:19:36.377Z,16.88
2018-09-01T04:20:37.054Z,16.88
2018-09-01T04:21:36.268Z,16.88
2018-09-01T04:22:36.273Z,16.88
2018-09-01T04:23:39.091Z,22.50
2018-09-01T04:24:36.180Z,22.50
2018-09-01T04:25:36.201Z,22.50
2018-09-01T04:26:36.123Z,28.13
2018-09-01T04:27:36.131Z,28.13
2018-09-01T04:28:36.059Z,33.75
2018-09-01T04:29:36.031Z,33.75
2018-09-01T04:30:36.000Z,39.38
2018-09-01T04:31:36.139Z,45.00
2018-09-01T04:32:36.598Z,45.00
2018-09-01T04:33:35.910Z,50.63
2018-09-01T04:34:35.881Z,56.25
2018-09-01T04:35:35.892Z,56.25
2018-09-01T04:36:35.888Z,61.88
2018-09-01T04:37:36.140Z,61.88
2018-09-01T04:38:35.760Z,67.50
2018-09-01T04:39:36.595Z,67.50
2018-09-01T04:40:35.701Z,73.13
2018-09-01T04:41:36.676Z,73.13
2018-09-01T04:42:36.149Z,73.13
2018-09-01T04:43:36.592Z,78.75
2018-09-01T04:44:35.582Z,78.75
2018-09-01T04:45:35.558Z,78.75
2018-09-01T04:46:35.569Z,84.38
2018-09-01T04:47:35.508Z,84.38
2018-09-01T04:48:36.093Z,84.38
2018-09-01T04:49:36.092Z,90.00
2018-09-01T04:50:35.413Z,90.00
2018-09-01T04:51:35.418Z,95.63
2018-09-01T04:52:36.094Z,101.25
2018-09-01T04:53:36.101Z,101.25
2018-09-01T04:54:36.215Z,106.88
2018-09-01T04:55:36.096Z,112.50
2018-09-01T04:56:36.156Z,112.50
2018-09-01T04:57:35.192Z,118.13
2018-09-01T04:58:35.166Z,123.75
2018-09-01T04:59:35.135Z,129.38
2018-09-01T05:00:35.104Z,129.38
2018-09-01T05:01:35.654Z,135.00
2018-09-01T05:02:35.044Z,140.63
2018-09-01T05:03:35.015Z,140.63
2018-09-01T05:04:34.998Z,140.63
2018-09-01T05:05:35.007Z,146.25
2018-09-01T05:06:34.930Z,146.25
2018-09-01T05:07:34.944Z,146.25
2018-09-01T05:08:34.879Z,146.25
2018-09-01T05:09:34.837Z,146.25
2018-09-01T05:10:34.807Z,146.25
2018-09-01T05:11:35.147Z,151.88
2018-09-01T05:12:34.750Z,151.88
2018-09-01T05:13:35.597Z,151.88
2018-09-01T05:14:34.706Z,151.88
2018-09-01T05:15:34.661Z,151.88
2018-09-01T05:16:34.677Z,151.88
2018-09-01T05:17:34.603Z,151.88
2018-09-01T05:18:34.579Z,151.88
2018-09-01T05:19:34.545Z,151.88
2018-09-01T05:20:34.517Z,151.88
2018-09-01T05:21:34.657Z,151.88
2018-09-01T05:22:34.482Z,151.88
2018-09-01T05:23:34.433Z,151.88
2018-09-01T05:24:34.445Z,157.50
2018-09-01T05:25:34.371Z,157.50
2018-09-01T05:26:34.341Z,163.13
2018-09-01T05:27:34.356Z,174.38
2018-09-01T05:28:34.291Z,185.63
2018-09-01T05:29:34.251Z,196.88
2018-09-01T05:30:34.283Z,208.13
2018-09-01T05:31:35.099Z,213.75
2018-09-01T05:32:34.167Z,219.38
2018-09-01T05:33:34.137Z,219.38
2018-09-01T05:34:34.108Z,225.00
2018-09-01T05:35:34.125Z,230.63
2018-09-01T05:36:34.126Z,230.63
2018-09-01T05:37:34.063Z,230.63
2018-09-01T05:38:34.599Z,236.25
2018-09-01T05:39:33.968Z,236.25
2018-09-01T05:40:34.163Z,241.88
2018-09-01T05:41:35.102Z,230.63
2018-09-01T05:42:33.924Z,230.63
2018-09-01T05:43:33.875Z,230.63
2018-09-01T05:44:33.820Z,225.00
2018-09-01T05:45:33.793Z,230.63
2018-09-01T05:46:33.765Z,247.50
2018-09-01T05:47:33.774Z,247.50
2018-09-01T05:48:33.714Z,247.50
2018-09-01T05:49:33.679Z,247.50
2018-09-01T05:50:34.609Z,247.50
2018-09-01T05:51:33.680Z,253.13
2018-09-01T05:52:33.595Z,253.13
2018-09-01T05:53:34.111Z,253.13
2018-09-01T05:54:33.540Z,253.13
2018-09-01T05:55:33.568Z,258.75
2018-09-01T05:56:33.518Z,253.13
2018-09-01T05:57:34.158Z,258.75
2018-09-01T05:58:33.476Z,258.75
2018-09-01T05:59:33.398Z,264.38
2018-09-01T06:00:34.356Z,264.38
2018-09-01T06:01:33.485Z,270.00
2018-09-01T06:02:33.311Z,281.25
2018-09-01T06:03:33.281Z,286.88
2018-09-01T06:04:33.257Z,292.50
2018-09-01T06:05:33.228Z,303.75
2018-09-01T06:06:33.259Z,309.38
2018-09-01T06:07:33.189Z,315.00
2018-09-01T06:08:33.143Z,320.63
2018-09-01T06:09:33.659Z,326.25
2018-09-01T06:10:33.087Z,337.50
2018-09-01T06:11:33.063Z,320.63
2018-09-01T06:12:33.173Z,320.63
2018-09-01T06:13:33.010Z,315.00
2018-09-01T06:14:33.162Z,281.25
2018-09-01T06:15:33.564Z,281.25
2018-09-01T06:16:32.934Z,270.00
2018-09-01T06:17:33.053Z,281.25
2018-09-01T06:18:33.615Z,281.25
2018-09-01T06:19:32.849Z,275.63
2018-09-01T06:20:32.860Z,275.63
2018-09-01T06:21:32.786Z,275.63
2018-09-01T06:22:32.767Z,270.00
2018-09-01T06:23:32.734Z,270.00
2018-09-01T06:24:32.704Z,258.75
2018-09-01T06:25:32.720Z,253.13
2018-09-01T06:26:33.613Z,241.88
2018-09-01T06:27:32.624Z,236.25
2018-09-01T06:28:32.637Z,230.63
2018-09-01T06:29:32.569Z,230.63
2018-09-01T06:30:32.583Z,225.00
2018-09-01T06:31:32.517Z,236.25
2018-09-01T06:32:32.489Z,236.25
2018-09-01T06:33:32.511Z,236.25
2018-09-01T06:34:32.447Z,236.25
2018-09-01T06:35:32.408Z,241.88
2018-09-01T06:36:32.374Z,247.50
2018-09-01T06:37:32.411Z,247.50
2018-09-01T06:38:32.369Z,253.13
2018-09-01T06:39:32.295Z,264.38
2018-09-01T06:40:32.279Z,270.00
2018-09-01T06:41:32.252Z,270.00
2018-09-01T06:42:32.211Z,275.63
2018-09-01T06:43:32.261Z,286.88
2018-09-01T06:44:32.183Z,292.50
2018-09-01T06:45:32.180Z,298.13
2018-09-01T06:46:32.106Z,303.75
2018-09-01T06:47:32.085Z,303.75
2018-09-01T06:48:32.613Z,303.75
2018-09-01T06:49:32.613Z,309.38
2018-09-01T06:50:32.037Z,315.00
2018-09-01T06:51:32.047Z,320.63
2018-09-01T06:52:31.952Z,343.13
2018-09-01T06:53:31.914Z,360.00
2018-09-01T06:54:31.884Z,360.00
2018-09-01T06:55:31.905Z,382.50
2018-09-01T06:56:32.621Z,382.50
2018-09-01T06:57:32.616Z,376.88
2018-09-01T06:58:31.791Z,382.50
2018-09-01T06:59:31.753Z,393.75
2018-09-01T07:00:31.765Z,393.75
2018-09-01T07:01:31.747Z,388.13
2018-09-01T07:02:31.668Z,382.50
2018-09-01T07:03:31.650Z,376.88
2018-09-01T07:04:31.620Z,365.63
2018-09-01T07:05:32.120Z,365.63
2018-09-01T07:06:32.115Z,354.38
2018-09-01T07:07:31.545Z,354.38
2018-09-01T07:08:31.571Z,360.00
2018-09-01T07:09:31.488Z,354.38
2018-09-01T07:10:31.507Z,348.75
2018-09-01T07:11:31.431Z,348.75
2018-09-01T07:12:31.405Z,354.38
2018-09-01T07:13:31.383Z,354.38
2018-09-01T07:14:31.355Z,360.00
2018-09-01T07:15:31.373Z,360.00
2018-09-01T07:16:32.120Z,360.00
2018-09-01T07:17:31.275Z,360.00
2018-09-01T07:18:32.132Z,360.00
2018-09-01T07:19:31.220Z,360.00
2018-09-01T07:20:31.240Z,360.00
2018-09-01T07:21:31.173Z,360.00
2018-09-01T07:22:31.144Z,365.63
2018-09-01T07:23:31.163Z,365.63
2018-09-01T07:24:31.107Z,365.63
2018-09-01T07:25:31.062Z,365.63
2018-09-01T07:26:31.041Z,371.25
2018-09-01T07:27:31.016Z,376.88
2018-09-01T07:28:31.677Z,382.50
2018-09-01T07:29:30.964Z,393.75
2018-09-01T07:30:31.738Z,405.00
2018-09-01T07:31:31.279Z,416.25
2018-09-01T07:32:30.940Z,427.50
2018-09-01T07:33:30.860Z,444.38
2018-09-01T07:34:30.826Z,444.38
2018-09-01T07:35:30.849Z,450.00
2018-09-01T07:36:30.779Z,450.00
2018-09-01T07:37:30.751Z,450.00
2018-09-01T07:38:31.198Z,444.38
2018-09-01T07:39:30.703Z,433.13
2018-09-01T07:40:30.679Z,433.13
2018-09-01T07:41:30.648Z,427.50
2018-09-01T07:42:30.624Z,427.50
2018-09-01T07:43:30.643Z,427.50
2018-09-01T07:44:30.577Z,427.50
2018-09-01T07:45:31.124Z,427.50
2018-09-01T07:46:31.127Z,427.50
2018-09-01T07:47:31.127Z,427.50
2018-09-01T07:48:30.676Z,421.88
2018-09-01T07:49:30.681Z,416.25
2018-09-01T07:50:31.126Z,410.63
2018-09-01T07:51:30.456Z,399.38
2018-09-01T07:52:30.383Z,393.75
2018-09-01T07:53:30.390Z,393.75
2018-09-01T07:54:30.339Z,388.13
2018-09-01T07:55:30.293Z,388.13
2018-09-01T07:56:30.271Z,388.13
2018-09-01T07:57:30.246Z,388.13
2018-09-01T07:58:30.264Z,382.50
2018-09-01T07:59:30.191Z,388.13
2018-09-01T08:00:30.172Z,388.13
2018-09-01T08:01:30.141Z,388.13
2018-09-01T08:02:30.347Z,393.75
2018-09-01T08:03:30.097Z,399.38
2018-09-01T08:04:30.072Z,405.00
2018-09-01T08:05:30.063Z,410.63
2018-09-01T08:06:30.020Z,410.63
2018-09-01T08:07:30.203Z,410.63
2018-09-01T08:08:30.006Z,416.25
2018-09-01T08:09:29.942Z,421.88
2018-09-01T08:10:29.918Z,416.25
2018-09-01T08:11:29.897Z,416.25
2018-09-01T08:12:29.867Z,416.25
2018-09-01T08:13:30.183Z,410.63
2018-09-01T08:14:30.701Z,405.00
2018-09-01T08:15:29.802Z,393.75
2018-09-01T08:16:29.791Z,382.50
2018-09-01T08:17:29.798Z,371.25
2018-09-01T08:18:29.722Z,354.38
2018-09-01T08:19:29.700Z,348.75
2018-09-01T08:20:29.668Z,337.50
2018-09-01T08:21:29.649Z,337.50
2018-09-01T08:22:29.677Z,331.88
2018-09-01T08:23:30.135Z,331.88
2018-09-01T08:24:29.574Z,331.88
2018-09-01T08:25:30.135Z,331.88
2018-09-01T08:26:30.134Z,331.88
2018-09-01T08:27:30.133Z,326.25
2018-09-01T08:28:29.473Z,320.63
2018-09-01T08:29:29.449Z,320.63
2018-09-01T08:30:29.419Z,315.00
2018-09-01T08:31:29.403Z,315.00
2018-09-01T08:32:29.425Z,303.75
2018-09-01T08:33:29.346Z,298.13
2018-09-01T08:34:29.328Z,275.63
2018-09-01T08:35:29.298Z,286.88
2018-09-01T08:36:29.278Z,275.63
2018-09-01T08:37:29.312Z,275.63
2018-09-01T08:38:29.221Z,281.25
2018-09-01T08:39:29.221Z,281.25
2018-09-01T08:40:29.232Z,281.25
2018-09-01T08:41:29.152Z,281.25
2018-09-01T08:42:29.123Z,281.25
2018-09-01T08:43:29.102Z,275.63
2018-09-01T08:44:29.074Z,275.63
2018-09-01T08:45:29.152Z,275.63
2018-09-01T08:46:29.023Z,275.63
2018-09-01T08:47:29.003Z,275.63
2018-09-01T08:48:28.974Z,275.63
2018-09-01T08:49:28.948Z,281.25
2018-09-01T08:50:28.972Z,281.25
2018-09-01T08:51:28.941Z,281.25
2018-09-01T08:52:29.075Z,281.25
2018-09-01T08:53:28.852Z,281.25
2018-09-01T08:54:28.831Z,286.88
2018-09-01T08:55:28.841Z,286.88
2018-09-01T08:56:28.882Z,286.88
2018-09-01T08:57:28.752Z,292.50
2018-09-01T08:58:28.730Z,292.50
2018-09-01T08:59:28.747Z,298.13
2018-09-01T09:00:28.725Z,298.13
2018-09-01T09:01:28.652Z,298.13
2018-09-01T09:02:28.630Z,286.88
2018-09-01T09:03:28.613Z,286.88
2018-09-01T09:04:28.592Z,298.13
2018-09-01T09:05:28.655Z,303.75
2018-09-01T09:06:28.534Z,309.38
2018-09-01T09:07:28.550Z,343.13
2018-09-01T09:08:28.492Z,376.88
2018-09-01T09:09:29.096Z,393.75
2018-09-01T09:10:28.465Z,388.13
2018-09-01T09:11:28.429Z,371.25
2018-09-01T09:12:28.432Z,360.00
2018-09-01T09:13:28.362Z,371.25
2018-09-01T09:14:28.337Z,371.25
2018-09-01T09:15:28.334Z,360.00
2018-09-01T09:16:28.299Z,360.00
2018-09-01T09:17:28.312Z,360.00
2018-09-01T09:18:28.290Z,354.38
2018-09-01T09:19:29.146Z,365.63
2018-09-01T09:20:28.232Z,371.25
2018-09-01T09:21:28.486Z,382.50
2018-09-01T09:22:28.645Z,393.75
2018-09-01T09:23:28.143Z,393.75
2018-09-01T09:24:28.151Z,393.75
2018-09-01T09:25:28.094Z,416.25
2018-09-01T09:26:28.050Z,427.50
2018-09-01T09:27:28.071Z,433.13
2018-09-01T09:28:28.020Z,444.38
2018-09-01T09:29:27.978Z,472.50
2018-09-01T09:30:27.960Z,478.13
2018-09-01T09:31:27.984Z,478.13
2018-09-01T09:32:27.914Z,483.75
2018-09-01T09:33:27.887Z,489.38
2018-09-01T09:34:27.943Z,511.88
2018-09-01T09:35:27.946Z,545.63
2018-09-01T09:36:27.855Z,556.88
2018-09-01T09:37:27.804Z,511.88
2018-09-01T09:38:27.822Z,461.25
2018-09-01T09:39:27.744Z,421.88
2018-09-01T09:40:27.722Z,393.75
2018-09-01T09:41:27.698Z,399.38
2018-09-01T09:42:27.687Z,405.00
2018-09-01T09:43:27.713Z,433.13
2018-09-01T09:44:27.629Z,427.50
2018-09-01T09:45:27.609Z,371.25
2018-09-01T09:46:27.584Z,348.75
2018-09-01T09:47:27.563Z,326.25
2018-09-01T09:48:27.579Z,315.00
2018-09-01T09:49:27.561Z,315.00
2018-09-01T09:50:27.500Z,337.50
2018-09-01T09:51:27.471Z,343.13
2018-09-01T09:52:27.448Z,326.25
2018-09-01T09:53:27.425Z,320.63
2018-09-01T09:54:27.460Z,320.63
2018-09-01T09:55:27.395Z,315.00
2018-09-01T09:56:27.363Z,326.25
2018-09-01T09:57:27.333Z,331.88
2018-09-01T09:58:27.309Z,343.13
2018-09-01T09:59:27.347Z,343.13
2018-09-01T10:00:27.272Z,343.13
2018-09-01T10:01:27.241Z,320.63
2018-09-01T10:02:27.258Z,315.00
2018-09-01T10:03:27.203Z,309.38
2018-09-01T10:04:27.217Z,315.00
2018-09-01T10:05:27.199Z,326.25
2018-09-01T10:06:27.124Z,337.50
2018-09-01T10:07:27.113Z,354.38
2018-09-01T10:08:27.091Z,388.13
2018-09-01T10:09:27.201Z,416.25
2018-09-01T10:10:27.032Z,455.63
2018-09-01T10:11:27.012Z,523.13
2018-09-01T10:12:26.993Z,551.25
2018-09-01T10:13:26.970Z,551.25
2018-09-01T10:14:27.004Z,590.63
2018-09-01T10:15:26.919Z,658.13
2018-09-01T10:16:26.944Z,691.88
2018-09-01T10:17:26.875Z,675.00
2018-09-01T10:18:26.850Z,731.25
2018-09-01T10:19:26.828Z,708.75
2018-09-01T10:20:26.871Z,663.75
2018-09-01T10:21:26.785Z,652.50
2018-09-01T10:22:26.762Z,663.75
2018-09-01T10:23:27.661Z,658.13
2018-09-01T10:24:26.721Z,663.75
2018-09-01T10:25:26.740Z,635.63
2018-09-01T10:26:26.681Z,630.00
2018-09-01T10:27:26.649Z,590.63
2018-09-01T10:28:26.631Z,556.88
2018-09-01T10:29:26.606Z,523.13
2018-09-01T10:30:26.629Z,500.63
2018-09-01T10:31:26.579Z,466.88
2018-09-01T10:32:26.585Z,450.00
2018-09-01T10:33:26.536Z,438.75
2018-09-01T10:34:26.503Z,450.00
2018-09-01T10:35:26.530Z,461.25
2018-09-01T10:36:27.165Z,455.63
2018-09-01T10:37:26.449Z,421.88
2018-09-01T10:38:26.427Z,399.38
2018-09-01T10:39:26.397Z,376.88
2018-09-01T10:40:26.425Z,388.13
2018-09-01T10:41:26.352Z,399.38
2018-09-01T10:42:26.387Z,393.75
2018-09-01T10:43:26.311Z,365.63
2018-09-01T10:44:26.331Z,371.25
2018-09-01T10:45:26.309Z,365.63
2018-09-01T10:46:26.310Z,365.63
2018-09-01T10:47:26.229Z,365.63
2018-09-01T10:48:26.212Z,376.88
2018-09-01T10:49:26.184Z,388.13
2018-09-01T10:50:26.209Z,405.00
2018-09-01T10:51:26.136Z,427.50
2018-09-01T10:52:26.157Z,455.63
2018-09-01T10:53:26.143Z,489.38
2018-09-01T10:54:26.074Z,545.63
2018-09-01T10:55:26.065Z,579.38
2018-09-01T10:56:26.037Z,607.50
2018-09-01T10:57:26.729Z,618.75
2018-09-01T10:58:25.987Z,658.13
2018-09-01T10:59:26.035Z,646.88
2018-09-01T11:00:26.003Z,641.25
2018-09-01T11:01:27.582Z,675.00
2018-09-01T11:02:25.903Z,686.25
2018-09-01T11:03:25.884Z,708.75
2018-09-01T11:04:25.872Z,714.38
2018-09-01T11:05:25.898Z,720.00
2018-09-01T11:06:25.857Z,731.25
2018-09-01T11:07:25.797Z,736.88
2018-09-01T11:08:25.782Z,714.38
2018-09-01T11:09:25.806Z,669.38
2018-09-01T11:10:25.731Z,624.38
2018-09-01T11:11:25.776Z,601.88
2018-09-01T11:12:25.689Z,579.38
2018-09-01T11:13:25.680Z,562.50
2018-09-01T11:14:25.653Z,528.75
2018-09-01T11:15:25.630Z,517.50
2018-09-01T11:16:25.666Z,534.38
2018-09-01T11:17:25.584Z,528.75
2018-09-01T11:18:26.585Z,528.75
2018-09-01T11:19:25.561Z,534.38
2018-09-01T11:20:25.530Z,540.00
2018-09-01T11:21:25.557Z,540.00
2018-09-01T11:22:25.484Z,556.88
2018-09-01T11:23:25.459Z,573.75
2018-09-01T11:24:25.446Z,590.63
2018-09-01T11:25:25.420Z,607.50
2018-09-01T11:26:25.443Z,630.00
2018-09-01T11:27:25.437Z,652.50
2018-09-01T11:28:25.393Z,669.38
2018-09-01T11:29:25.334Z,675.00
2018-09-01T11:30:25.309Z,675.00
2018-09-01T11:31:25.294Z,675.00
2018-09-01T11:32:25.313Z,669.38
2018-09-01T11:33:25.250Z,663.75
2018-09-01T11:34:25.226Z,680.63
2018-09-01T11:35:26.263Z,697.50
2018-09-01T11:36:26.208Z,691.88
2018-09-01T11:37:25.229Z,686.25
2018-09-01T11:38:25.691Z,675.00
2018-09-01T11:39:25.698Z,663.75
2018-09-01T11:40:25.102Z,663.75
2018-09-01T11:41:25.085Z,663.75
2018-09-01T11:42:25.304Z,669.38
2018-09-01T11:43:25.039Z,680.63
2018-09-01T11:44:25.232Z,686.25
2018-09-01T11:45:25.686Z,697.50
2018-09-01T11:46:24.978Z,691.88
2018-09-01T11:47:25.003Z,691.88
2018-09-01T11:48:24.944Z,697.50
2018-09-01T11:49:24.974Z,697.50
2018-09-01T11:50:24.897Z,697.50
2018-09-01T11:51:24.900Z,703.13
2018-09-01T11:52:24.947Z,714.38
2018-09-01T11:53:24.857Z,708.75
2018-09-01T11:54:24.859Z,708.75
2018-09-01T11:55:24.794Z,708.75
2018-09-01T11:56:24.798Z,708.75
2018-09-01T11:57:24.751Z,708.75
2018-09-01T11:58:24.739Z,708.75
2018-09-01T11:59:24.768Z,714.38
2018-09-01T12:00:24.735Z,708.75
2018-09-01T12:01:24.712Z,708.75
2018-09-01T12:02:24.654Z,697.50
2018-09-01T12:03:24.668Z,697.50
2018-09-01T12:04:24.658Z,686.25
2018-09-01T12:05:24.594Z,680.63
2018-09-01T12:06:24.633Z,680.63
2018-09-01T12:07:24.551Z,686.25
2018-09-01T12:08:24.524Z,691.88
2018-09-01T12:09:24.564Z,697.50
2018-09-01T12:10:24.586Z,697.50
2018-09-01T12:11:24.533Z,691.88
2018-09-01T12:12:24.444Z,691.88
2018-09-01T12:13:24.430Z,675.00
2018-09-01T12:14:24.409Z,652.50
2018-09-01T12:15:24.384Z,635.63
2018-09-01T12:16:24.405Z,624.38
2018-09-01T12:17:24.380Z,641.25
2018-09-01T12:18:24.327Z,663.75
2018-09-01T12:19:24.300Z,680.63
2018-09-01T12:20:24.285Z,686.25
2018-09-01T12:21:24.315Z,686.25
2018-09-01T12:22:24.288Z,675.00
2018-09-01T12:23:24.233Z,658.13
2018-09-01T12:24:24.203Z,646.88
2018-09-01T12:25:24.178Z,641.25
2018-09-01T12:26:24.216Z,646.88
2018-09-01T12:27:24.151Z,652.50
2018-09-01T12:28:24.181Z,658.13
2018-09-01T12:29:24.101Z,658.13
2018-09-01T12:30:24.074Z,658.13
2018-09-01T12:31:24.102Z,646.88
2018-09-01T12:32:24.137Z,641.25
2018-09-01T12:33:24.016Z,630.00
2018-09-01T12:34:23.994Z,618.75
2018-09-01T12:35:24.040Z,613.13
2018-09-01T12:36:23.990Z,601.88
2018-09-01T12:37:23.979Z,596.25
2018-09-01T12:38:23.914Z,585.00
2018-09-01T12:39:23.890Z,579.38
2018-09-01T12:40:23.876Z,568.13
2018-09-01T12:41:23.856Z,562.50
2018-09-01T12:42:23.905Z,556.88
2018-09-01T12:43:23.812Z,545.63
2018-09-01T12:44:23.816Z,534.38
2018-09-01T12:45:24.703Z,517.50